Главная страница
METAR-TAF:

METAR-TAF

Аэропорты :

Оба, Вануату

широта: 15-18-24S, долгота: 167-58-02E, высота над уровнем моря: 51 м

Текущие метеонаблюдения

Эта сводка был подготовлена 10 часа и 19 минут назад, в 09:00 UTC
Ветер 4 Узел от восточно-юго-восточный
Температура 26°C
Влажность 84%
Давление 1010 hPa
Видимость 10 км и более
Отдельные облака на высоте 2000 фута

METAR: NVSG 130900Z 11004KT 9999 SCT020 26/23 Q1010

Время: 06:19 (19:19 UTC)

Прогноз

Эта сводка был подготовлена 2 часа и 19 минут назад, в 17:00 UTC
Прогноз действительный с 13-го 18 UTC до 14-го 18 UTC
Ветер 3 Узел переменных направлений
Видимость 10 км и более
Отдельные облака на высоте 2000 фута
Вероятность 30%
между IN и TE UTC
Видимость: 9000 м
Отдельные облака на высоте 1200 фута
Рассеянная облачность на высоте 1800 фута
ливневые дожди
изменения
С 13-го 20 UTC до 13-го 22 UTC
Ветер 10 Узел от южный

TAF: NVSG 131700Z 1318/1418 VRB03KT 9999 SCT020 PROB30 INTER 1321/1324 9000 SHRA SCT012 BKN018 BECMG 1320/1322 17010KT

Метеонаблюдения и прогнозы для более 4000 аэропортов (сводки METAR и TAF).

Имеющиеся станции представлены на карте желтыми и красными точками.

Чтобы увидеть название станции, наведите на нее мышь.

Затем щелкните, чтобы увидеть метеонаблюдения и метеопрогнозы.

Управление картой: чтобы увеличить масштаб, щелкните зеленые кнопки с черным крестиком; чтобы уменьшить масштаб, щелкните зеленую кнопку с тире; для просмотра соседних карт щелкайте зеленые стрелки.


METAR-TAF: